METAR Data
IDs: Format: Raw Decoded Include TAF

Data at: 1408 UTC 13 Dec 2019

KARG 131403Z AUTO 21006KT 2SM BR OVC002 05/04 A3001 RMK AO2
KARG 131356Z AUTO 21008KT 1 3/4SM BR OVC002 04/04 A3002 RMK AO2 RAB1259E31 SLP168 P0000 T00440044
KARG 131347Z AUTO 19006KT 1 3/4SM BR OVC002 04/04 A3001 RMK AO2 RAB1259E31 P0000
KARG 131331Z AUTO 19008KT 3SM BR OVC002 04/04 A3002 RMK AO2 RAB1259E31 P0000
KARG 131328Z AUTO 19009KT 1 1/4SM -RA BR OVC002 04/04 A3002 RMK AO2 VIS 1/2V5 RAB1259 P0000
KARG 131302Z AUTO 18007KT 3/4SM -RA BR OVC002 04/04 A3001 RMK AO2 RAB1259 P0000 RVRNO
KARG 131256Z AUTO 18007KT 1 1/4SM BR OVC002 04/04 A3002 RMK AO2 SLP169 T00440044
KARG 131237Z AUTO 19006KT 1 1/4SM BR OVC002 04/04 A3002 RMK AO2
KARG 131227Z AUTO 19006KT 2 1/2SM BR OVC002 04/04 A3002 RMK AO2
KARG 131156Z AUTO 17006KT 10SM OVC004 04/03 A3001 RMK AO2 SLP168 T00390033 10039 20006 57016
KARG 131114Z AUTO 14003KT 10SM BKN006 03/02 RMK AO2 CIG 004V009 $
KARG 131104Z AUTO 17004KT 10SM BKN004 BKN008 03/02 A3003 RMK AO2
KARG 131056Z AUTO 14004KT 10SM FEW004 SCT008 02/01 A3003 RMK AO2 SLP171 T00170006 FZRANO
KARG 131046Z AUTO 12004KT 10SM FEW008 02/01 A3003 RMK AO2 FZRANO
KARG 130956Z AUTO 12003KT 10SM BKN090 01/01 A3005 RMK AO2 SLP180 T00110006 FZRANO
KARG 130856Z AUTO 00000KT 10SM CLR 01/00 A3006 RMK AO2 SLP182 T00110000 58018 FZRANO
KARG 130756Z AUTO 00000KT 10SM BKN100 02/00 A3008 RMK AO2 SLP189 T00220000 FZRANO
KARG 130656Z AUTO 00000KT 10SM BKN100 02/M01 A3010 RMK AO2 SLP196 T00171006 FZRANO
KARG 130556Z AUTO 00000KT 10SM CLR 01/M01 A3011 RMK AO2 SLP201 T00111006 10061 20011 401061017 58008 FZRANO
KARG 130456Z AUTO 15004KT 10SM CLR 02/M01 A3012 RMK AO2 SLP204 T00171006 FZRANO
KARG 130356Z AUTO 00000KT 10SM CLR 03/M01 A3014 RMK AO2 SLP209 T00281006
KARG 130256Z AUTO 19006KT 10SM CLR 04/M01 A3014 RMK AO2 SLP209 T00391006 58014
KARG 130156Z AUTO 16006KT 10SM CLR 03/M01 A3016 RMK AO2 SLP218 T00281006
KARG 130056Z AUTO 14006KT 10SM CLR 04/00 A3017 RMK AO2 SLP222 T00390000
KARG 122356Z AUTO 13004KT 10SM CLR 06/01 A3018 RMK AO2 SLP224 T00560011 10106 20056 56008
KARG 122256Z AUTO 17004KT 10SM CLR 07/01 A3019 RMK AO2 SLP224 T00670006
KARG 122156Z AUTO 17007KT 10SM CLR 09/01 A3019 RMK AO2 SLP227 T00890011
KARG 122056Z AUTO 16010KT 10SM CLR 10/01 A3020 RMK AO2 SLP232 T01000006 56042
KARG 121956Z AUTO 19007KT 10SM CLR 11/01 A3024 RMK AO2 SLP244 T01060006
KARG 121856Z AUTO 19008KT 10SM CLR 10/00 A3029 RMK AO2 SLP261 T01000000
KARG 121756Z AUTO 18008KT 10SM CLR 10/M01 A3033 RMK AO2 SLP274 T01001011 10100 21017 58031
KARG 121656Z AUTO 16006KT 10SM CLR 08/00 A3039 RMK AO2 PRESFR SLP295 T00830000
KARG 121556Z AUTO 17003KT 10SM CLR 05/01 A3042 RMK AO2 SLP304 T00500006
KARG 121456Z AUTO 14006KT 10SM CLR 04/02 A3042 RMK AO2 SLP306 T00390022 56008
KARG 121356Z AUTO 11004KT 10SM CLR M01/M02 A3043 RMK AO2 SLP308 T10061017 FZRANO
KARG 121256Z AUTO 00000KT 10SM CLR M02/M03 A3043 RMK AO2 SLP309 T10171028 FZRANO
KARG 121156Z AUTO 00000KT 10SM CLR M01/M03 A3045 RMK AO2 SLP314 T10111028 10011 21011 55003 FZRANO
KARG 121056Z AUTO 00000KT 10SM CLR 01/M02 A3044 RMK AO2 SLP312 T00061022 FZRANO
KARG 120956Z AUTO 17007KT 10SM CLR M01/M03 A3044 RMK AO2 SLP311 T10111028 FZRANO
KARG 120856Z AUTO 17004KT 10SM CLR 00/M02 A3045 RMK AO2 SLP317 T00001017 58007 FZRANO
KARG 120756Z AUTO 18005KT 10SM CLR 01/M02 A3047 RMK AO2 SLP321 T00061017 FZRANO
KARG 120656Z AUTO 18007KT 10SM CLR 01/M02 A3047 RMK AO2 SLP321 T00061022 FZRANO
KARG 120556Z AUTO 19006KT 10SM CLR 01/M02 A3048 RMK AO2 SLP324 T00061017 10039 20006 400891039 58001 FZRANO
KARG 120456Z AUTO 18004KT 10SM CLR 02/M02 A3048 RMK AO2 SLP324 T00171017 FZRANO
KARG 120356Z AUTO 17006KT 10SM CLR 01/M02 A3048 RMK AO2 SLP326 T00111017 FZRANO
KARG 120256Z AUTO 17005KT 10SM CLR 02/M02 A3048 RMK AO2 SLP326 T00171017 55000 FZRANO